Terminal Aerodrome Forecast
Issued by NWS

Home | Current Version | Previous Version | Text Only | Print | Product List | Glossary On
Versions: 1 2 3 4 5 6 7 8 9 10 11 12 13 14 15
270
FTUS41 KCAR 242323 CCA
TAFFVE
TAF COR
KFVE 242323Z 2500/2524 17008KT P6SM SCT040
     FM250600 17006KT P6SM BKN024
     FM251000 18007KT P6SM BKN008
     FM251330 18007KT P6SM BKN022
     FM251700 23005KT P6SM VCSH BKN035
     FM251900 30004KT 3SM SHRA OVC025
     FM252200 32006KT P6SM BKN035=

USA.gov is the U.S. government's official web portal to all federal, state and local government web resources and services.